sensor_id;sensor_type;location;lat;lon;timestamp;pressure;altitude;pressure_sealevel;temperature;humidity
64192;BME280;50497;50.720;-2.084;2023-09-19T00:01:52;101464.69;;;13.67;100.00
64192;BME280;50497;50.720;-2.084;2023-09-19T00:04:18;101456.41;;;13.72;100.00
64192;BME280;50497;50.720;-2.084;2023-09-19T00:06:48;101449.41;;;13.67;100.00
64192;BME280;50497;50.720;-2.084;2023-09-19T00:09:13;101444.44;;;13.60;100.00
64192;BME280;50497;50.720;-2.084;2023-09-19T00:11:39;101450.38;;;13.66;100.00
64192;BME280;50497;50.720;-2.084;2023-09-19T00:14:06;101450.59;;;13.62;100.00
64192;BME280;50497;50.720;-2.084;2023-09-19T00:16:34;101445.34;;;13.59;100.00
64192;BME280;50497;50.720;-2.084;2023-09-19T00:18:59;101427.47;;;13.58;100.00
64192;BME280;50497;50.720;-2.084;2023-09-19T00:21:31;101427.66;;;13.55;100.00
64192;BME280;50497;50.720;-2.084;2023-09-19T00:23:56;101410.94;;;13.48;100.00
64192;BME280;50497;50.720;-2.084;2023-09-19T00:26:22;101415.44;;;13.47;100.00
64192;BME280;50497;50.720;-2.084;2023-09-19T00:28:47;101422.34;;;13.34;100.00
64192;BME280;50497;50.720;-2.084;2023-09-19T00:31:13;101406.28;;;13.33;100.00
64192;BME280;50497;50.720;-2.084;2023-09-19T00:33:38;101400.47;;;13.23;100.00
64192;BME280;50497;50.720;-2.084;2023-09-19T00:36:04;101391.88;;;13.15;100.00
64192;BME280;50497;50.720;-2.084;2023-09-19T00:38:30;101358.16;;;13.09;100.00
64192;BME280;50497;50.720;-2.084;2023-09-19T00:40:57;101373.34;;;13.10;100.00
64192;BME280;50497;50.720;-2.084;2023-09-19T00:43:22;101356.47;;;13.06;100.00
64192;BME280;50497;50.720;-2.084;2023-09-19T00:45:51;101355.75;;;13.03;100.00
64192;BME280;50497;50.720;-2.084;2023-09-19T00:48:17;101337.59;;;13.08;100.00
64192;BME280;50497;50.720;-2.084;2023-09-19T00:50:43;101337.06;;;13.19;100.00
64192;BME280;50497;50.720;-2.084;2023-09-19T00:53:14;101335.31;;;13.18;100.00
64192;BME280;50497;50.720;-2.084;2023-09-19T00:55:41;101332.41;;;13.22;100.00
64192;BME280;50497;50.720;-2.084;2023-09-19T00:58:08;101325.88;;;13.28;100.00
64192;BME280;50497;50.720;-2.084;2023-09-19T01:00:35;101333.66;;;13.34;100.00
64192;BME280;50497;50.720;-2.084;2023-09-19T01:03:01;101321.66;;;13.41;100.00
64192;BME280;50497;50.720;-2.084;2023-09-19T01:05:27;101317.09;;;13.43;100.00
64192;BME280;50497;50.720;-2.084;2023-09-19T01:07:53;101329.13;;;13.54;100.00
64192;BME280;50497;50.720;-2.084;2023-09-19T01:10:19;101308.31;;;13.57;100.00
64192;BME280;50497;50.720;-2.084;2023-09-19T01:21:44;101291.56;;;13.70;100.00
64192;BME280;50497;50.720;-2.084;2023-09-19T01:27:13;101310.75;;;13.97;100.00
64192;BME280;50497;50.720;-2.084;2023-09-19T01:29:45;101309.56;;;14.02;100.00
64192;BME280;50497;50.720;-2.084;2023-09-19T01:32:13;101305.63;;;14.10;100.00
64192;BME280;50497;50.720;-2.084;2023-09-19T01:34:52;101306.31;;;14.13;100.00
64192;BME280;50497;50.720;-2.084;2023-09-19T01:37:20;101287.03;;;14.05;100.00
64192;BME280;50497;50.720;-2.084;2023-09-19T01:40:02;101304.78;;;14.25;100.00
64192;BME280;50497;50.720;-2.084;2023-09-19T01:45:42;101308.97;;;14.31;100.00
64192;BME280;50497;50.720;-2.084;2023-09-19T01:48:19;101318.53;;;14.36;100.00
64192;BME280;50497;50.720;-2.084;2023-09-19T01:53:21;101298.25;;;14.47;100.00
64192;BME280;50497;50.720;-2.084;2023-09-19T01:55:49;101320.06;;;14.58;100.00
64192;BME280;50497;50.720;-2.084;2023-09-19T02:00:51;101307.88;;;14.51;100.00
64192;BME280;50497;50.720;-2.084;2023-09-19T02:03:20;101319.66;;;14.66;100.00
64192;BME280;50497;50.720;-2.084;2023-09-19T02:05:51;101313.44;;;14.81;100.00
64192;BME280;50497;50.720;-2.084;2023-09-19T02:08:20;101322.03;;;14.88;100.00
64192;BME280;50497;50.720;-2.084;2023-09-19T02:10:46;101322.72;;;14.91;100.00
64192;BME280;50497;50.720;-2.084;2023-09-19T02:13:18;101308.03;;;14.81;100.00
64192;BME280;50497;50.720;-2.084;2023-09-19T02:15:45;101340.53;;;14.94;100.00
64192;BME280;50497;50.720;-2.084;2023-09-19T02:18:11;101337.06;;;14.92;100.00
64192;BME280;50497;50.720;-2.084;2023-09-19T02:20:37;101339.31;;;14.84;100.00
64192;BME280;50497;50.720;-2.084;2023-09-19T02:23:03;101300.38;;;14.73;100.00
64192;BME280;50497;50.720;-2.084;2023-09-19T02:25:28;101324.38;;;14.78;100.00
64192;BME280;50497;50.720;-2.084;2023-09-19T02:27:54;101323.06;;;14.85;100.00
64192;BME280;50497;50.720;-2.084;2023-09-19T02:30:19;101313.44;;;14.81;100.00
64192;BME280;50497;50.720;-2.084;2023-09-19T02:32:50;101297.78;;;14.88;100.00
64192;BME280;50497;50.720;-2.084;2023-09-19T02:35:16;101328.03;;;15.09;100.00
64192;BME280;50497;50.720;-2.084;2023-09-19T02:37:41;101308.63;;;15.18;100.00
64192;BME280;50497;50.720;-2.084;2023-09-19T02:40:07;101313.38;;;15.29;100.00
64192;BME280;50497;50.720;-2.084;2023-09-19T02:42:46;101319.50;;;15.32;100.00
64192;BME280;50497;50.720;-2.084;2023-09-19T02:45:14;101334.59;;;15.35;100.00
64192;BME280;50497;50.720;-2.084;2023-09-19T02:47:43;101324.16;;;15.45;100.00
64192;BME280;50497;50.720;-2.084;2023-09-19T02:50:09;101330.50;;;15.44;100.00
64192;BME280;50497;50.720;-2.084;2023-09-19T02:52:36;101319.44;;;15.48;100.00
64192;BME280;50497;50.720;-2.084;2023-09-19T02:55:01;101318.25;;;15.54;100.00
64192;BME280;50497;50.720;-2.084;2023-09-19T02:57:29;101293.13;;;15.38;100.00
64192;BME280;50497;50.720;-2.084;2023-09-19T02:59:54;101313.03;;;15.51;100.00
64192;BME280;50497;50.720;-2.084;2023-09-19T03:02:20;101317.09;;;15.58;100.00
64192;BME280;50497;50.720;-2.084;2023-09-19T03:04:45;101314.97;;;15.63;100.00
64192;BME280;50497;50.720;-2.084;2023-09-19T03:07:12;101306.63;;;15.68;100.00
64192;BME280;50497;50.720;-2.084;2023-09-19T03:09:37;101317.41;;;15.68;100.00
64192;BME280;50497;50.720;-2.084;2023-09-19T03:12:03;101299.47;;;15.67;100.00
64192;BME280;50497;50.720;-2.084;2023-09-19T03:14:29;101280.09;;;15.60;100.00
64192;BME280;50497;50.720;-2.084;2023-09-19T03:17:00;101283.38;;;15.65;100.00
64192;BME280;50497;50.720;-2.084;2023-09-19T03:19:26;101284.09;;;15.69;100.00
64192;BME280;50497;50.720;-2.084;2023-09-19T03:21:52;101292.63;;;15.61;100.00
64192;BME280;50497;50.720;-2.084;2023-09-19T03:24:18;101284.81;;;15.57;100.00
64192;BME280;50497;50.720;-2.084;2023-09-19T03:26:44;101281.59;;;15.50;100.00
64192;BME280;50497;50.720;-2.084;2023-09-19T03:29:10;101276.41;;;15.47;100.00
64192;BME280;50497;50.720;-2.084;2023-09-19T03:31:36;101285.78;;;15.56;100.00
64192;BME280;50497;50.720;-2.084;2023-09-19T03:34:02;101289.25;;;15.58;100.00
64192;BME280;50497;50.720;-2.084;2023-09-19T03:36:29;101286.72;;;15.55;100.00
64192;BME280;50497;50.720;-2.084;2023-09-19T03:38:54;101298.97;;;15.60;100.00
64192;BME280;50497;50.720;-2.084;2023-09-19T03:41:20;101287.25;;;15.61;100.00
64192;BME280;50497;50.720;-2.084;2023-09-19T03:43:45;101280.28;;;15.57;100.00
64192;BME280;50497;50.720;-2.084;2023-09-19T03:46:10;101283.38;;;15.65;100.00
64192;BME280;50497;50.720;-2.084;2023-09-19T03:48:37;101265.66;;;15.61;100.00
64192;BME280;50497;50.720;-2.084;2023-09-19T03:51:03;101276.28;;;15.64;100.00
64192;BME280;50497;50.720;-2.084;2023-09-19T03:53:28;101262.97;;;15.61;100.00
64192;BME280;50497;50.720;-2.084;2023-09-19T03:55:54;101257.22;;;15.67;100.00
64192;BME280;50497;50.720;-2.084;2023-09-19T03:58:20;101257.97;;;15.69;100.00
64192;BME280;50497;50.720;-2.084;2023-09-19T04:00:45;101239.38;;;15.65;100.00
64192;BME280;50497;50.720;-2.084;2023-09-19T04:03:11;101237.06;;;15.73;100.00
64192;BME280;50497;50.720;-2.084;2023-09-19T04:05:45;101238.91;;;15.73;100.00
64192;BME280;50497;50.720;-2.084;2023-09-19T04:08:11;101237.69;;;15.78;100.00
64192;BME280;50497;50.720;-2.084;2023-09-19T04:10:36;101241.84;;;15.84;100.00
64192;BME280;50497;50.720;-2.084;2023-09-19T04:13:02;101223.91;;;15.83;100.00
64192;BME280;50497;50.720;-2.084;2023-09-19T04:15:29;101234.28;;;15.75;100.00
64192;BME280;50497;50.720;-2.084;2023-09-19T04:17:54;101228.84;;;15.46;100.00
64192;BME280;50497;50.720;-2.084;2023-09-19T04:20:20;101208.59;;;15.08;100.00
64192;BME280;50497;50.720;-2.084;2023-09-19T04:22:48;101212.69;;;15.00;100.00
64192;BME280;50497;50.720;-2.084;2023-09-19T04:25:13;101206.38;;;14.85;100.00
64192;BME280;50497;50.720;-2.084;2023-09-19T04:27:39;101210.63;;;14.73;100.00
64192;BME280;50497;50.720;-2.084;2023-09-19T04:30:06;101199.19;;;14.69;100.00
64192;BME280;50497;50.720;-2.084;2023-09-19T04:32:37;101208.13;;;14.70;100.00
64192;BME280;50497;50.720;-2.084;2023-09-19T04:35:06;101221.22;;;14.60;100.00
64192;BME280;50497;50.720;-2.084;2023-09-19T04:37:33;101214.16;;;14.57;100.00
64192;BME280;50497;50.720;-2.084;2023-09-19T04:39:58;101240.09;;;14.60;100.00
64192;BME280;50497;50.720;-2.084;2023-09-19T04:42:23;101252.25;;;14.67;100.00
64192;BME280;50497;50.720;-2.084;2023-09-19T04:44:50;101255.75;;;14.69;100.00
64192;BME280;50497;50.720;-2.084;2023-09-19T04:47:19;101287.84;;;14.72;100.00
64192;BME280;50497;50.720;-2.084;2023-09-19T04:49:44;101290.31;;;14.77;100.00
64192;BME280;50497;50.720;-2.084;2023-09-19T04:52:09;101312.53;;;14.81;100.00
64192;BME280;50497;50.720;-2.084;2023-09-19T04:54:35;101324.53;;;14.75;100.00
64192;BME280;50497;50.720;-2.084;2023-09-19T04:57:00;101347.47;;;14.82;100.00
64192;BME280;50497;50.720;-2.084;2023-09-19T04:59:26;101365.84;;;14.91;100.00
64192;BME280;50497;50.720;-2.084;2023-09-19T05:01:51;101382.94;;;14.90;100.00
64192;BME280;50497;50.720;-2.084;2023-09-19T05:04:16;101393.47;;;14.95;100.00
64192;BME280;50497;50.720;-2.084;2023-09-19T05:06:42;101396.41;;;14.90;100.00
64192;BME280;50497;50.720;-2.084;2023-09-19T05:09:07;101402.41;;;14.95;100.00
64192;BME280;50497;50.720;-2.084;2023-09-19T05:11:33;101377.56;;;14.90;100.00
64192;BME280;50497;50.720;-2.084;2023-09-19T05:13:59;101381.13;;;15.07;100.00
64192;BME280;50497;50.720;-2.084;2023-09-19T05:16:29;101367.66;;;15.07;100.00
64192;BME280;50497;50.720;-2.084;2023-09-19T05:18:56;101342.09;;;15.14;100.00
64192;BME280;50497;50.720;-2.084;2023-09-19T05:21:23;101342.53;;;15.22;100.00
64192;BME280;50497;50.720;-2.084;2023-09-19T05:23:51;101290.81;;;15.15;100.00
64192;BME280;50497;50.720;-2.084;2023-09-19T05:26:17;101293.47;;;15.31;100.00
64192;BME280;50497;50.720;-2.084;2023-09-19T05:28:43;101268.44;;;15.29;100.00
64192;BME280;50497;50.720;-2.084;2023-09-19T05:31:08;101250.34;;;15.31;100.00
64192;BME280;50497;50.720;-2.084;2023-09-19T05:33:34;101236.59;;;15.36;100.00
64192;BME280;50497;50.720;-2.084;2023-09-19T05:35:59;101222.66;;;15.44;100.00
64192;BME280;50497;50.720;-2.084;2023-09-19T05:38:24;101207.09;;;15.49;100.00
64192;BME280;50497;50.720;-2.084;2023-09-19T05:40:52;101182.31;;;15.57;100.00
64192;BME280;50497;50.720;-2.084;2023-09-19T05:43:18;101186.75;;;15.58;100.00
64192;BME280;50497;50.720;-2.084;2023-09-19T05:45:44;101173.78;;;15.64;100.00
64192;BME280;50497;50.720;-2.084;2023-09-19T05:48:12;101167.53;;;15.64;100.00
64192;BME280;50497;50.720;-2.084;2023-09-19T05:50:42;101169.72;;;15.71;100.00
64192;BME280;50497;50.720;-2.084;2023-09-19T05:53:08;101152.19;;;15.64;100.00
64192;BME280;50497;50.720;-2.084;2023-09-19T05:55:37;101148.50;;;15.65;100.00
64192;BME280;50497;50.720;-2.084;2023-09-19T05:58:02;101152.44;;;15.76;100.00
64192;BME280;50497;50.720;-2.084;2023-09-19T06:00:28;101150.75;;;15.73;100.00
64192;BME280;50497;50.720;-2.084;2023-09-19T06:02:57;101134.94;;;15.67;100.00
64192;BME280;50497;50.720;-2.084;2023-09-19T06:05:25;101156.84;;;15.77;100.00
64192;BME280;50497;50.720;-2.084;2023-09-19T06:07:52;101157.00;;;15.74;100.00
64192;BME280;50497;50.720;-2.084;2023-09-19T06:10:18;101156.22;;;15.57;100.00
64192;BME280;50497;50.720;-2.084;2023-09-19T06:12:46;101170.50;;;15.59;100.00
64192;BME280;50497;50.720;-2.084;2023-09-19T06:15:15;101185.03;;;15.57;100.00
64192;BME280;50497;50.720;-2.084;2023-09-19T06:17:46;101198.78;;;15.52;100.00
64192;BME280;50497;50.720;-2.084;2023-09-19T06:20:12;101221.50;;;15.48;100.00
64192;BME280;50497;50.720;-2.084;2023-09-19T06:22:41;101253.69;;;15.51;100.00
64192;BME280;50497;50.720;-2.084;2023-09-19T06:25:08;101265.91;;;15.42;100.00
64192;BME280;50497;50.720;-2.084;2023-09-19T06:27:36;101301.16;;;15.53;100.00
64192;BME280;50497;50.720;-2.084;2023-09-19T06:30:02;101317.53;;;15.50;100.00
64192;BME280;50497;50.720;-2.084;2023-09-19T06:32:28;101335.03;;;15.43;100.00
64192;BME280;50497;50.720;-2.084;2023-09-19T06:34:54;101349.16;;;15.32;100.00
64192;BME280;50497;50.720;-2.084;2023-09-19T06:37:20;101386.00;;;15.32;100.00
64192;BME280;50497;50.720;-2.084;2023-09-19T06:39:46;101428.72;;;15.24;100.00
64192;BME280;50497;50.720;-2.084;2023-09-19T06:42:15;101494.38;;;15.23;100.00
64192;BME280;50497;50.720;-2.084;2023-09-19T06:44:42;101595.47;;;15.14;100.00
64192;BME280;50497;50.720;-2.084;2023-09-19T06:47:08;101728.00;;;15.22;100.00
64192;BME280;50497;50.720;-2.084;2023-09-19T06:49:34;101856.34;;;15.26;100.00
64192;BME280;50497;50.720;-2.084;2023-09-19T06:52:00;101964.25;;;15.25;100.00
64192;BME280;50497;50.720;-2.084;2023-09-19T06:54:26;102086.03;;;15.34;100.00
64192;BME280;50497;50.720;-2.084;2023-09-19T06:56:55;102157.22;;;15.30;100.00
64192;BME280;50497;50.720;-2.084;2023-09-19T06:59:20;102234.75;;;15.46;100.00
64192;BME280;50497;50.720;-2.084;2023-09-19T07:01:46;102276.09;;;15.46;100.00
64192;BME280;50497;50.720;-2.084;2023-09-19T07:04:12;102317.22;;;15.51;100.00
64192;BME280;50497;50.720;-2.084;2023-09-19T07:06:38;102320.84;;;15.50;100.00
64192;BME280;50497;50.720;-2.084;2023-09-19T07:09:03;102329.84;;;15.51;100.00
64192;BME280;50497;50.720;-2.084;2023-09-19T07:11:29;102339.28;;;15.61;100.00
64192;BME280;50497;50.720;-2.084;2023-09-19T07:13:56;102326.72;;;15.60;100.00
64192;BME280;50497;50.720;-2.084;2023-09-19T07:16:21;102275.91;;;15.51;100.00
64192;BME280;50497;50.720;-2.084;2023-09-19T07:18:55;102263.75;;;15.61;100.00
64192;BME280;50497;50.720;-2.084;2023-09-19T07:21:22;102218.69;;;15.63;100.00
64192;BME280;50497;50.720;-2.084;2023-09-19T07:23:47;102175.31;;;15.68;100.00
64192;BME280;50497;50.720;-2.084;2023-09-19T07:26:13;102124.41;;;15.60;100.00
64192;BME280;50497;50.720;-2.084;2023-09-19T07:28:38;102058.66;;;15.63;100.00
64192;BME280;50497;50.720;-2.084;2023-09-19T07:31:04;102007.81;;;15.73;100.00
64192;BME280;50497;50.720;-2.084;2023-09-19T07:33:32;101949.31;;;15.73;100.00
64192;BME280;50497;50.720;-2.084;2023-09-19T07:35:57;101886.91;;;15.81;100.00
64192;BME280;50497;50.720;-2.084;2023-09-19T07:38:23;101844.53;;;15.83;100.00
64192;BME280;50497;50.720;-2.084;2023-09-19T07:40:48;101801.50;;;15.80;100.00
64192;BME280;50497;50.720;-2.084;2023-09-19T07:43:13;101754.53;;;15.84;100.00
64192;BME280;50497;50.720;-2.084;2023-09-19T07:45:39;101743.75;;;15.84;100.00
64192;BME280;50497;50.720;-2.084;2023-09-19T07:48:05;101709.19;;;15.91;100.00
64192;BME280;50497;50.720;-2.084;2023-09-19T07:50:33;101636.25;;;15.92;100.00
64192;BME280;50497;50.720;-2.084;2023-09-19T07:52:59;101607.44;;;15.93;100.00
64192;BME280;50497;50.720;-2.084;2023-09-19T07:55:24;101531.69;;;15.96;100.00
64192;BME280;50497;50.720;-2.084;2023-09-19T07:57:52;101500.84;;;16.00;100.00
64192;BME280;50497;50.720;-2.084;2023-09-19T08:00:17;101465.75;;;16.00;100.00
64192;BME280;50497;50.720;-2.084;2023-09-19T08:02:43;101422.41;;;16.03;100.00
64192;BME280;50497;50.720;-2.084;2023-09-19T08:05:09;101390.59;;;16.08;100.00
64192;BME280;50497;50.720;-2.084;2023-09-19T08:07:39;101373.47;;;16.09;100.00
64192;BME280;50497;50.720;-2.084;2023-09-19T08:10:06;101341.84;;;16.11;100.00
64192;BME280;50497;50.720;-2.084;2023-09-19T08:12:44;101319.69;;;16.20;100.00
64192;BME280;50497;50.720;-2.084;2023-09-19T08:15:16;101289.38;;;16.30;100.00
64192;BME280;50497;50.720;-2.084;2023-09-19T08:17:42;101295.66;;;16.30;100.00
64192;BME280;50497;50.720;-2.084;2023-09-19T08:20:09;101270.41;;;16.31;100.00
64192;BME280;50497;50.720;-2.084;2023-09-19T08:22:48;101269.72;;;16.28;100.00
64192;BME280;50497;50.720;-2.084;2023-09-19T08:25:15;101252.66;;;16.27;100.00
64192;BME280;50497;50.720;-2.084;2023-09-19T08:27:45;101259.59;;;16.31;100.00
64192;BME280;50497;50.720;-2.084;2023-09-19T08:30:14;101241.47;;;16.33;100.00
64192;BME280;50497;50.720;-2.084;2023-09-19T08:32:40;101225.84;;;16.24;100.00
64192;BME280;50497;50.720;-2.084;2023-09-19T08:35:08;101226.63;;;16.26;100.00
64192;BME280;50497;50.720;-2.084;2023-09-19T08:37:34;101188.06;;;16.10;100.00
64192;BME280;50497;50.720;-2.084;2023-09-19T08:39:59;101218.53;;;16.26;100.00
64192;BME280;50497;50.720;-2.084;2023-09-19T08:42:25;101227.56;;;16.25;100.00
64192;BME280;50497;50.720;-2.084;2023-09-19T08:44:50;101203.78;;;16.17;100.00
64192;BME280;50497;50.720;-2.084;2023-09-19T08:47:33;101206.19;;;16.07;100.00
64192;BME280;50497;50.720;-2.084;2023-09-19T08:52:43;101239.44;;;16.22;100.00
64192;BME280;50497;50.720;-2.084;2023-09-19T08:55:13;101239.44;;;16.22;100.00
64192;BME280;50497;50.720;-2.084;2023-09-19T08:57:46;101242.63;;;16.29;100.00
64192;BME280;50497;50.720;-2.084;2023-09-19T09:00:15;101267.22;;;16.24;100.00
64192;BME280;50497;50.720;-2.084;2023-09-19T09:02:42;101257.84;;;16.30;100.00
64192;BME280;50497;50.720;-2.084;2023-09-19T09:05:11;101260.34;;;16.33;100.00
64192;BME280;50497;50.720;-2.084;2023-09-19T09:07:37;101243.31;;;16.33;100.00
64192;BME280;50497;50.720;-2.084;2023-09-19T09:10:04;101242.03;;;16.38;100.00
64192;BME280;50497;50.720;-2.084;2023-09-19T09:12:30;101232.22;;;16.37;100.00
64192;BME280;50497;50.720;-2.084;2023-09-19T09:14:56;101232.41;;;16.34;100.00
64192;BME280;50497;50.720;-2.084;2023-09-19T09:17:23;101238.09;;;16.44;100.00
64192;BME280;50497;50.720;-2.084;2023-09-19T09:19:52;101232.50;;;16.47;100.00
64192;BME280;50497;50.720;-2.084;2023-09-19T09:22:17;101248.69;;;16.47;100.00
64192;BME280;50497;50.720;-2.084;2023-09-19T09:27:20;101226.44;;;16.43;100.00
64192;BME280;50497;50.720;-2.084;2023-09-19T09:29:47;101240.50;;;16.49;100.00
64192;BME280;50497;50.720;-2.084;2023-09-19T09:32:20;101228.50;;;16.53;100.00
64192;BME280;50497;50.720;-2.084;2023-09-19T09:34:48;101243.56;;;16.57;100.00
64192;BME280;50497;50.720;-2.084;2023-09-19T09:37:15;101231.41;;;16.50;100.00
64192;BME280;50497;50.720;-2.084;2023-09-19T09:39:49;101237.56;;;16.52;100.00
64192;BME280;50497;50.720;-2.084;2023-09-19T09:42:33;101208.00;;;16.50;100.00
64192;BME280;50497;50.720;-2.084;2023-09-19T09:45:22;101251.34;;;16.61;100.00
64192;BME280;50497;50.720;-2.084;2023-09-19T09:47:58;101237.09;;;16.59;100.00
64192;BME280;50497;50.720;-2.084;2023-09-19T09:50:25;101236.44;;;16.56;100.00
64192;BME280;50497;50.720;-2.084;2023-09-19T09:52:57;101247.31;;;16.54;100.00
64192;BME280;50497;50.720;-2.084;2023-09-19T09:55:58;101238.75;;;16.62;100.00
64192;BME280;50497;50.720;-2.084;2023-09-19T09:58:25;101231.03;;;16.56;100.00
64192;BME280;50497;50.720;-2.084;2023-09-19T10:00:55;101230.81;;;16.59;100.00
64192;BME280;50497;50.720;-2.084;2023-09-19T10:03:35;101244.03;;;16.63;100.00
64192;BME280;50497;50.720;-2.084;2023-09-19T10:06:06;101245.09;;;16.61;100.00
64192;BME280;50497;50.720;-2.084;2023-09-19T10:09:00;101240.28;;;16.52;100.00
64192;BME280;50497;50.720;-2.084;2023-09-19T10:14:09;101255.31;;;16.70;100.00
64192;BME280;50497;50.720;-2.084;2023-09-19T10:16:40;101239.59;;;16.62;100.00
64192;BME280;50497;50.720;-2.084;2023-09-19T10:19:11;101256.84;;;16.74;100.00
64192;BME280;50497;50.720;-2.084;2023-09-19T10:21:41;101262.16;;;16.76;100.00
64192;BME280;50497;50.720;-2.084;2023-09-19T10:24:08;101244.16;;;16.62;100.00
64192;BME280;50497;50.720;-2.084;2023-09-19T10:26:36;101272.19;;;16.74;100.00
64192;BME280;50497;50.720;-2.084;2023-09-19T10:29:01;101279.94;;;16.66;100.00
64192;BME280;50497;50.720;-2.084;2023-09-19T10:31:29;101283.69;;;16.63;100.00
64192;BME280;50497;50.720;-2.084;2023-09-19T10:34:02;101288.13;;;16.64;100.00
64192;BME280;50497;50.720;-2.084;2023-09-19T10:36:32;101275.75;;;16.60;100.00
64192;BME280;50497;50.720;-2.084;2023-09-19T10:39:00;101277.31;;;16.64;100.00
64192;BME280;50497;50.720;-2.084;2023-09-19T10:41:31;101289.25;;;16.74;100.00
64192;BME280;50497;50.720;-2.084;2023-09-19T10:44:02;101291.78;;;16.77;100.00
64192;BME280;50497;50.720;-2.084;2023-09-19T10:46:28;101304.44;;;16.77;100.00
64192;BME280;50497;50.720;-2.084;2023-09-19T10:48:59;101294.66;;;16.74;100.00
64192;BME280;50497;50.720;-2.084;2023-09-19T10:51:29;101310.88;;;16.74;100.00
64192;BME280;50497;50.720;-2.084;2023-09-19T10:54:04;101307.50;;;16.71;100.00
64192;BME280;50497;50.720;-2.084;2023-09-19T10:56:35;101312.16;;;16.69;100.00
64192;BME280;50497;50.720;-2.084;2023-09-19T10:59:10;101326.03;;;16.77;100.00
64192;BME280;50497;50.720;-2.084;2023-09-19T11:01:45;101313.28;;;16.79;100.00
64192;BME280;50497;50.720;-2.084;2023-09-19T11:04:30;101332.31;;;16.92;100.00
64192;BME280;50497;50.720;-2.084;2023-09-19T11:07:12;101304.50;;;16.90;100.00
64192;BME280;50497;50.720;-2.084;2023-09-19T11:09:46;101334.34;;;16.88;100.00
64192;BME280;50497;50.720;-2.084;2023-09-19T11:15:08;101333.66;;;16.85;100.00
64192;BME280;50497;50.720;-2.084;2023-09-19T11:17:42;101341.38;;;16.91;100.00
64192;BME280;50497;50.720;-2.084;2023-09-19T11:30:46;101332.47;;;17.03;100.00
64192;BME280;50497;50.720;-2.084;2023-09-19T11:33:30;101278.25;;;17.19;100.00
64192;BME280;50497;50.720;-2.084;2023-09-19T11:36:09;101318.16;;;17.15;100.00
64192;BME280;50497;50.720;-2.084;2023-09-19T11:49:16;101287.19;;;17.34;100.00
64192;BME280;50497;50.720;-2.084;2023-09-19T11:51:46;101272.00;;;17.18;100.00
64192;BME280;50497;50.720;-2.084;2023-09-19T11:54:15;101256.25;;;17.38;100.00
64192;BME280;50497;50.720;-2.084;2023-09-19T11:56:46;101273.75;;;17.32;100.00
64192;BME280;50497;50.720;-2.084;2023-09-19T11:59:23;101259.28;;;17.46;100.00
64192;BME280;50497;50.720;-2.084;2023-09-19T12:01:56;101243.41;;;17.42;100.00
64192;BME280;50497;50.720;-2.084;2023-09-19T12:04:34;101248.28;;;17.49;100.00
64192;BME280;50497;50.720;-2.084;2023-09-19T12:07:07;101234.22;;;17.57;100.00
64192;BME280;50497;50.720;-2.084;2023-09-19T12:09:40;101226.41;;;17.52;100.00
64192;BME280;50497;50.720;-2.084;2023-09-19T12:12:11;101215.59;;;17.52;100.00
64192;BME280;50497;50.720;-2.084;2023-09-19T12:14:48;101208.03;;;17.58;100.00
64192;BME280;50497;50.720;-2.084;2023-09-19T12:17:13;101196.66;;;17.52;100.00
64192;BME280;50497;50.720;-2.084;2023-09-19T12:19:39;101166.38;;;17.47;100.00
64192;BME280;50497;50.720;-2.084;2023-09-19T12:22:04;101185.41;;;17.59;100.00
64192;BME280;50497;50.720;-2.084;2023-09-19T12:24:30;101200.66;;;17.60;100.00
64192;BME280;50497;50.720;-2.084;2023-09-19T12:27:06;101181.19;;;17.54;100.00
64192;BME280;50497;50.720;-2.084;2023-09-19T12:29:41;101202.19;;;17.64;100.00
64192;BME280;50497;50.720;-2.084;2023-09-19T12:32:07;101184.22;;;17.50;100.00
64192;BME280;50497;50.720;-2.084;2023-09-19T12:34:33;101192.88;;;17.68;100.00
64192;BME280;50497;50.720;-2.084;2023-09-19T12:39:44;101204.91;;;17.64;100.00
64192;BME280;50497;50.720;-2.084;2023-09-19T12:42:22;101197.97;;;17.60;100.00
64192;BME280;50497;50.720;-2.084;2023-09-19T12:44:53;101175.34;;;17.48;100.00
64192;BME280;50497;50.720;-2.084;2023-09-19T12:47:23;101188.66;;;17.51;100.00
64192;BME280;50497;50.720;-2.084;2023-09-19T12:50:12;101196.97;;;17.48;100.00
64192;BME280;50497;50.720;-2.084;2023-09-19T12:52:49;101206.94;;;17.47;100.00
64192;BME280;50497;50.720;-2.084;2023-09-19T13:03:12;101212.59;;;17.57;100.00
64192;BME280;50497;50.720;-2.084;2023-09-19T13:05:57;101196.44;;;17.55;100.00
64192;BME280;50497;50.720;-2.084;2023-09-19T13:08:34;101199.47;;;17.51;100.00
64192;BME280;50497;50.720;-2.084;2023-09-19T13:13:33;101184.97;;;17.39;100.00
64192;BME280;50497;50.720;-2.084;2023-09-19T13:15:58;101200.47;;;17.50;100.00
64192;BME280;50497;50.720;-2.084;2023-09-19T13:18:24;101194.72;;;17.54;100.00
64192;BME280;50497;50.720;-2.084;2023-09-19T13:21:08;101200.00;;;17.56;100.00
64192;BME280;50497;50.720;-2.084;2023-09-19T13:23:38;101210.72;;;17.58;100.00
64192;BME280;50497;50.720;-2.084;2023-09-19T13:26:03;101213.03;;;17.64;100.00
64192;BME280;50497;50.720;-2.084;2023-09-19T13:28:31;101193.31;;;17.49;100.00
64192;BME280;50497;50.720;-2.084;2023-09-19T13:30:56;101224.91;;;17.61;100.00
64192;BME280;50497;50.720;-2.084;2023-09-19T13:33:22;101206.31;;;17.57;100.00
64192;BME280;50497;50.720;-2.084;2023-09-19T13:35:47;101190.41;;;17.52;100.00
64192;BME280;50497;50.720;-2.084;2023-09-19T13:38:13;101220.38;;;17.62;100.00
64192;BME280;50497;50.720;-2.084;2023-09-19T13:40:39;101214.19;;;17.60;100.00
64192;BME280;50497;50.720;-2.084;2023-09-19T13:43:07;101208.03;;;17.58;100.00